Time;durP1;ratioP1;P1;durP2;ratioP2;P2;SDS_P1;SDS_P2;PMS_P1;PMS_P2;Temp;Humidity;BMP_temperature;BMP_pressure;BME280_temperature;BME280_humidity;BME280_pressure;Samples;Min_cycle;Max_cycle;Signal;HPM_P1;HPM_P2
2023/03/24 00:00:22;;;;;;;2.28;1.00;;;;;;;15.16;47.33;102339.97;5052384;28;20506;-39
2023/03/24 00:02:50;;;;;;;2.50;0.70;;;;;;;15.07;45.85;102354.66;5052411;28;20063;-39
2023/03/24 00:05:19;;;;;;;4.95;1.50;;;;;;;15.01;46.31;102353.59;5052660;28;20056;-39
2023/03/24 00:07:46;;;;;;;8.07;4.32;;;;;;;15.00;45.47;102353.78;5052263;28;20055;-39
2023/03/24 00:10:21;;;;;;;9.13;7.45;;;;;;;14.99;46.10;102350.25;5048772;28;20494;-41
2023/03/24 00:12:48;;;;;;;4.35;2.90;;;;;;;14.77;46.99;102352.19;5045073;28;20433;-39
2023/03/24 00:15:18;;;;;;;4.38;1.02;;;;;;;14.62;46.14;102350.63;5069763;28;20040;-39
2023/03/24 00:17:48;;;;;;;1.65;0.70;;;;;;;14.38;47.58;102357.22;5061038;28;20024;-39
2023/03/24 00:20:16;;;;;;;2.65;0.77;;;;;;;14.35;48.54;102353.06;5051738;28;20032;-39
2023/03/24 00:22:49;;;;;;;3.05;0.88;;;;;;;14.52;49.08;102350.94;5052292;28;20033;-40
2023/03/24 00:25:18;;;;;;;2.85;0.95;;;;;;;14.30;48.90;102351.97;5064258;28;20163;-39
2023/03/24 00:27:47;;;;;;;3.50;0.90;;;;;;;14.18;50.47;102365.13;5051313;28;20029;-39
2023/03/24 00:30:14;;;;;;;4.50;0.80;;;;;;;14.18;50.31;102357.06;5032198;28;20515;-40
2023/03/24 00:32:41;;;;;;;4.45;1.00;;;;;;;14.07;51.35;102373.72;5056879;28;20044;-39
2023/03/24 00:35:11;;;;;;;3.15;1.02;;;;;;;14.10;51.57;102354.47;5053000;28;20064;-39
2023/03/24 00:37:40;;;;;;;1.33;0.55;;;;;;;14.14;51.75;102366.53;5041531;28;20024;-39
2023/03/24 00:40:11;;;;;;;2.20;0.82;;;;;;;14.12;53.55;102355.13;5045867;28;20032;-43
2023/03/24 00:42:39;;;;;;;3.33;0.63;;;;;;;14.22;52.17;102361.03;5048174;28;20021;-46
2023/03/24 00:45:10;;;;;;;2.42;0.90;;;;;;;14.29;52.70;102358.41;5047632;28;20308;-43
2023/03/24 00:47:37;;;;;;;2.08;0.57;;;;;;;14.33;51.59;102360.50;5040225;28;20033;-40
2023/03/24 00:50:05;;;;;;;3.80;0.80;;;;;;;14.12;52.30;102365.91;5065583;28;20135;-42
2023/03/24 00:52:35;;;;;;;1.83;0.57;;;;;;;14.24;52.50;102361.66;5050481;28;20100;-45
2023/03/24 00:55:03;;;;;;;2.38;0.60;;;;;;;14.08;53.32;102370.84;5038191;28;20025;-45
2023/03/24 00:57:33;;;;;;;1.50;0.70;;;;;;;14.00;54.21;102368.28;5038726;28;20536;-42
2023/03/24 01:00:09;;;;;;;4.72;0.63;;;;;;;14.03;54.60;102369.75;5038850;28;20052;-40
2023/03/24 01:02:39;;;;;;;2.53;0.60;;;;;;;14.12;54.67;102365.91;5043082;28;20420;-40
2023/03/24 01:05:07;;;;;;;5.47;0.82;;;;;;;13.86;55.76;102371.84;5044254;28;20116;-40
2023/03/24 01:07:34;;;;;;;1.17;0.60;;;;;;;13.72;56.38;102378.94;5054281;28;20406;-40
2023/03/24 01:10:00;;;;;;;1.65;0.50;;;;;;;13.67;55.69;102375.97;5033239;28;20449;-46
2023/03/24 01:12:30;;;;;;;2.80;0.63;;;;;;;13.47;56.55;102387.31;5033371;28;20399;-39
2023/03/24 01:15:01;;;;;;;2.75;0.70;;;;;;;13.47;57.81;102371.19;5038900;28;20055;-41
2023/03/24 01:17:28;;;;;;;2.10;0.70;;;;;;;13.43;57.81;102375.25;5040348;28;20094;-43
2023/03/24 01:19:55;;;;;;;2.58;0.70;;;;;;;13.39;57.57;102373.97;5050122;28;20052;-40
2023/03/24 01:22:26;;;;;;;1.95;0.60;;;;;;;13.26;57.62;102373.78;5053026;28;20033;-41
2023/03/24 01:24:52;;;;;;;5.25;1.70;;;;;;;12.94;59.03;102369.59;5030080;28;20034;-42
2023/03/24 01:27:19;;;;;;;3.47;1.30;;;;;;;12.83;59.44;102370.91;5070614;28;20032;-41
2023/03/24 01:29:45;;;;;;;3.53;1.10;;;;;;;12.76;60.21;102372.63;5069300;28;20039;-42
2023/03/24 01:32:12;;;;;;;3.00;0.90;;;;;;;12.75;60.90;102370.97;5051408;28;20471;-40
2023/03/24 01:34:39;;;;;;;2.65;0.90;;;;;;;12.77;60.82;102368.94;5051651;28;20524;-40
2023/03/24 01:37:05;;;;;;;7.90;1.30;;;;;;;12.75;60.66;102365.59;5051414;28;20021;-40
2023/03/24 01:39:32;;;;;;;2.80;1.00;;;;;;;12.63;61.06;102361.69;5051167;28;20025;-41
2023/03/24 01:41:58;;;;;;;1.60;0.80;;;;;;;12.56;61.67;102361.56;5051343;28;20467;-40
2023/03/24 01:44:35;;;;;;;6.75;1.15;;;;;;;12.58;61.93;102374.81;5049111;28;20021;-40
2023/03/24 01:47:06;;;;;;;3.40;0.90;;;;;;;12.53;62.85;102366.47;5034822;28;20021;-41
2023/03/24 01:49:37;;;;;;;1.52;0.70;;;;;;;12.66;62.78;102362.16;5037350;28;20034;-40
2023/03/24 01:52:10;;;;;;;5.97;0.80;;;;;;;12.65;63.31;102381.13;5032449;28;20447;-41
2023/03/24 01:54:45;;;;;;;3.00;0.90;;;;;;;12.50;63.54;102381.09;5053090;28;20103;-41
2023/03/24 01:57:25;;;;;;;1.38;0.77;;;;;;;12.30;64.27;102383.44;5055624;28;20017;-40
2023/03/24 01:59:55;;;;;;;2.20;0.73;;;;;;;12.35;65.18;102388.28;5054598;28;20032;-40
2023/03/24 02:02:22;;;;;;;4.25;0.80;;;;;;;12.26;65.40;102384.81;5054645;28;20120;-41
2023/03/24 02:04:54;;;;;;;4.78;1.77;;;;;;;12.31;65.66;102374.38;5054797;28;20477;-41
2023/03/24 02:07:40;;;;;;;1.40;0.73;;;;;;;12.28;66.09;102380.09;5054813;28;20036;-41
2023/03/24 02:10:12;;;;;;;2.92;0.98;;;;;;;12.20;65.87;102384.69;5054384;28;20071;-40
2023/03/24 02:12:40;;;;;;;4.35;0.73;;;;;;;12.19;65.28;102383.84;5054759;28;20020;-41
2023/03/24 02:15:08;;;;;;;2.97;0.82;;;;;;;12.14;64.99;102384.38;5055295;28;20017;-40
2023/03/24 02:17:35;;;;;;;5.70;1.08;;;;;;;12.08;65.58;102377.06;5054687;28;20387;-41
2023/03/24 02:20:22;;;;;;;2.45;1.00;;;;;;;12.29;64.17;102371.03;5054256;28;20032;-40
2023/03/24 02:23:45;;;;;;;1.88;1.02;;;;;;;12.29;63.76;102384.47;5047359;28;20116;-40
2023/03/24 02:26:39;;;;;;;3.42;1.10;;;;;;;12.17;64.09;102385.91;4996179;28;20031;-40
2023/03/24 02:29:15;;;;;;;2.42;1.10;;;;;;;12.17;63.79;102383.22;4992395;28;20165;-42
2023/03/24 02:31:58;;;;;;;2.70;0.98;;;;;;;12.12;63.92;102388.28;5039810;28;20183;-41
2023/03/24 02:34:43;;;;;;;6.90;1.20;;;;;;;12.24;63.64;102384.16;5051773;28;20036;-41
2023/03/24 02:37:34;;;;;;;5.57;1.80;;;;;;;12.08;61.51;102378.91;5039585;28;20036;-43
2023/03/24 02:40:33;;;;;;;4.57;1.70;;;;;;;11.99;62.16;102380.78;5033659;28;20083;-41
2023/03/24 02:43:18;;;;;;;8.93;2.00;;;;;;;11.94;62.57;102371.59;5053341;28;20044;-41
2023/03/24 02:46:19;;;;;;;2.90;1.40;;;;;;;11.77;62.87;102366.34;5057552;28;20021;-41
2023/03/24 02:49:43;;;;;;;6.00;1.92;;;;;;;11.88;63.23;102383.88;5057706;28;20090;-40
2023/03/24 02:52:34;;;;;;;5.90;1.92;;;;;;;11.91;63.42;102385.41;4983239;28;20038;-47
2023/03/24 02:55:09;;;;;;;4.38;1.55;;;;;;;11.70;64.04;102384.13;4977733;28;20034;-48
2023/03/24 02:57:47;;;;;;;7.10;1.95;;;;;;;11.74;64.23;102385.44;5054308;28;20498;-47
2023/03/24 03:00:31;;;;;;;4.22;1.77;;;;;;;11.86;62.95;102384.06;5055194;28;20056;-46
2023/03/24 03:03:17;;;;;;;5.35;2.38;;;;;;;11.84;63.61;102382.59;5052145;28;20048;-47
2023/03/24 03:05:51;;;;;;;9.30;2.50;;;;;;;11.85;63.49;102379.72;5060100;28;20047;-47
2023/03/24 03:08:20;;;;;;;7.32;2.25;;;;;;;11.83;63.77;102392.50;5064848;28;20175;-47
2023/03/24 03:10:49;;;;;;;7.68;2.20;;;;;;;11.82;64.08;102396.16;5068199;28;20533;-47
2023/03/24 03:13:26;;;;;;;6.47;1.55;;;;;;;11.77;64.41;102393.16;5056919;28;20371;-47
2023/03/24 03:15:58;;;;;;;2.22;1.13;;;;;;;11.82;64.11;102406.88;5035925;28;20025;-47
2023/03/24 03:18:39;;;;;;;2.75;1.23;;;;;;;11.80;63.84;102410.75;5046730;28;20424;-47
2023/03/24 03:21:15;;;;;;;3.85;1.27;;;;;;;11.83;63.95;102405.91;5044215;28;20029;-47
2023/03/24 03:23:49;;;;;;;2.65;1.20;;;;;;;11.88;63.73;102405.34;5033267;28;20041;-48
2023/03/24 03:26:23;;;;;;;4.55;1.20;;;;;;;11.87;63.09;102409.03;5036307;28;20030;-47
2023/03/24 03:28:56;;;;;;;4.10;1.20;;;;;;;11.84;63.79;102412.09;5041654;28;20057;-48
2023/03/24 03:31:49;;;;;;;2.60;1.27;;;;;;;11.81;64.02;102415.94;5052906;28;20112;-47
2023/03/24 03:34:33;;;;;;;3.35;1.10;;;;;;;11.78;63.20;102427.03;5049079;28;20044;-47
2023/03/24 03:37:08;;;;;;;2.88;1.00;;;;;;;11.76;63.38;102426.34;5043529;28;20021;-46
2023/03/24 03:39:45;;;;;;;6.03;1.35;;;;;;;11.66;63.74;102431.09;5051966;28;20367;-47
2023/03/24 03:42:12;;;;;;;3.05;1.13;;;;;;;11.74;63.22;102435.59;5032916;28;20041;-47
2023/03/24 03:44:38;;;;;;;4.60;1.38;;;;;;;11.75;63.46;102443.44;5033138;28;20026;-47
2023/03/24 03:47:04;;;;;;;7.65;1.58;;;;;;;11.70;64.14;102445.81;5043857;28;20029;-45
2023/03/24 03:49:31;;;;;;;4.85;1.25;;;;;;;11.74;64.20;102455.19;5038252;28;20064;-47
2023/03/24 03:51:57;;;;;;;5.00;1.42;;;;;;;11.70;64.19;102458.41;5048523;28;20032;-46
2023/03/24 03:54:27;;;;;;;2.80;1.10;;;;;;;11.46;64.70;102470.06;5035532;28;20021;-46
2023/03/24 03:56:54;;;;;;;6.88;1.42;;;;;;;11.42;65.01;102463.34;5043302;28;20251;-46
2023/03/24 03:59:37;;;;;;;3.58;0.90;;;;;;;11.39;65.08;102463.72;5032468;28;20025;-47
2023/03/24 04:02:28;;;;;;;7.72;1.73;;;;;;;11.28;65.67;102472.94;5032728;28;20096;-47
2023/03/24 04:05:49;;;;;;;5.75;1.30;;;;;;;11.42;63.88;102469.56;5051923;28;20469;-46
2023/03/24 04:08:24;;;;;;;5.15;1.15;;;;;;;11.39;63.41;102474.44;5020053;28;20053;-46
2023/03/24 04:11:12;;;;;;;8.52;1.20;;;;;;;11.43;62.85;102467.69;5037589;28;20031;-46
2023/03/24 04:13:56;;;;;;;5.60;1.50;;;;;;;11.48;62.68;102481.44;5042760;28;20025;-47
2023/03/24 04:16:57;;;;;;;6.35;1.55;;;;;;;11.41;63.00;102481.28;5032568;28;20075;-46
2023/03/24 04:19:56;;;;;;;5.53;1.40;;;;;;;11.46;62.29;102475.41;5037552;28;20037;-46
2023/03/24 04:22:49;;;;;;;5.78;1.40;;;;;;;11.21;62.65;102483.50;5038517;28;20030;-46
2023/03/24 04:25:55;;;;;;;6.25;1.40;;;;;;;11.20;62.14;102481.81;5036237;28;20111;-46
2023/03/24 04:28:47;;;;;;;4.03;1.27;;;;;;;11.08;62.13;102488.53;5020254;28;20443;-47
2023/03/24 04:31:32;;;;;;;5.95;1.38;;;;;;;11.19;62.21;102488.19;5032115;28;20049;-47
2023/03/24 04:34:28;;;;;;;4.85;1.38;;;;;;;11.25;62.14;102489.38;5048003;28;20096;-46
2023/03/24 04:37:14;;;;;;;5.88;1.85;;;;;;;11.12;62.22;102505.13;5045306;28;20037;-46
2023/03/24 04:39:45;;;;;;;8.65;1.70;;;;;;;11.01;62.76;102503.63;5050072;28;20104;-47
2023/03/24 04:42:24;;;;;;;10.18;1.75;;;;;;;10.76;63.14;102517.00;5035748;28;20041;-46
2023/03/24 04:44:51;;;;;;;4.88;1.42;;;;;;;10.73;63.64;102511.16;5051326;28;20079;-47
2023/03/24 04:47:23;;;;;;;4.03;1.08;;;;;;;10.87;63.16;102523.03;5043100;28;20083;-46
2023/03/24 04:49:49;;;;;;;6.20;1.58;;;;;;;10.84;62.48;102530.41;5031251;28;20403;-46
2023/03/24 04:52:16;;;;;;;5.35;1.70;;;;;;;10.70;61.42;102536.41;5031980;28;20033;-45
2023/03/24 04:54:42;;;;;;;7.18;1.92;;;;;;;10.46;61.02;102531.03;5035331;28;20378;-46
2023/03/24 04:57:08;;;;;;;13.45;1.80;;;;;;;10.43;60.38;102536.69;5043748;28;20119;-47
2023/03/24 04:59:35;;;;;;;7.13;2.17;;;;;;;10.42;60.75;102551.09;5043299;28;20026;-46
2023/03/24 05:02:02;;;;;;;8.98;2.35;;;;;;;10.45;61.57;102553.44;5031491;28;20561;-46
2023/03/24 05:04:29;;;;;;;9.90;2.63;;;;;;;10.37;62.42;102558.78;5047815;28;20100;-46
2023/03/24 05:06:55;;;;;;;8.93;2.50;;;;;;;10.29;61.78;102552.41;5034946;28;20052;-46
2023/03/24 05:09:24;;;;;;;11.90;2.72;;;;;;;10.22;61.80;102562.06;5051262;28;20033;-46
2023/03/24 05:11:51;;;;;;;9.48;2.58;;;;;;;10.19;62.06;102559.69;5043657;28;20040;-46
2023/03/24 05:14:17;;;;;;;10.40;2.65;;;;;;;10.15;61.95;102552.97;5046336;28;20087;-47
2023/03/24 05:16:44;;;;;;;14.18;2.78;;;;;;;10.15;62.39;102554.81;5034599;28;20443;-46
2023/03/24 05:19:10;;;;;;;10.68;2.55;;;;;;;10.12;62.50;102561.34;5050101;28;20371;-47
2023/03/24 05:21:37;;;;;;;10.48;2.78;;;;;;;9.97;61.43;102562.94;5050529;28;20055;-47
2023/03/24 05:24:03;;;;;;;8.48;2.60;;;;;;;9.94;61.32;102558.75;5031414;28;20037;-47
2023/03/24 05:26:30;;;;;;;12.02;2.63;;;;;;;9.86;61.64;102566.72;5048778;28;20037;-47
2023/03/24 05:28:56;;;;;;;10.05;2.13;;;;;;;9.94;61.84;102573.97;5052267;28;20064;-46
2023/03/24 05:31:23;;;;;;;11.32;2.53;;;;;;;9.87;61.92;102573.75;5053174;28;20036;-46
2023/03/24 05:33:49;;;;;;;18.05;3.30;;;;;;;9.83;61.18;102575.06;5044928;28;20088;-46
2023/03/24 05:36:15;;;;;;;11.70;2.60;;;;;;;9.75;61.33;102586.53;5048984;28;20033;-46
2023/03/24 05:38:41;;;;;;;8.77;2.85;;;;;;;9.75;61.63;102586.53;5053938;28;20482;-46
2023/03/24 05:41:08;;;;;;;10.95;2.58;;;;;;;9.70;60.93;102588.00;5059885;28;20470;-47
2023/03/24 05:43:34;;;;;;;11.15;2.40;;;;;;;9.76;59.64;102592.72;5050746;28;20040;-46
2023/03/24 05:46:00;;;;;;;9.10;2.83;;;;;;;9.62;61.07;102591.50;5038207;28;20487;-46
2023/03/24 05:48:27;;;;;;;8.95;2.20;;;;;;;9.55;62.05;102595.78;5045616;28;20360;-47
2023/03/24 05:50:53;;;;;;;11.15;2.92;;;;;;;9.45;61.69;102587.84;5061421;28;20024;-46
2023/03/24 05:53:20;;;;;;;10.30;2.25;;;;;;;9.40;62.13;102586.66;5052478;28;20033;-46
2023/03/24 05:55:46;;;;;;;11.02;2.17;;;;;;;9.30;63.14;102596.59;5050268;28;20407;-47
2023/03/24 05:58:14;;;;;;;15.98;2.97;;;;;;;9.25;62.57;102595.19;5034828;28;20376;-46
2023/03/24 06:00:40;;;;;;;13.48;2.60;;;;;;;9.28;62.58;102598.59;5043910;28;20048;-47
2023/03/24 06:03:07;;;;;;;12.40;2.50;;;;;;;9.25;61.00;102600.56;5040193;28;20029;-46
2023/03/24 06:05:33;;;;;;;11.05;3.10;;;;;;;9.08;61.58;102612.09;5041236;28;20112;-47
2023/03/24 06:08:00;;;;;;;5.50;2.00;;;;;;;8.95;62.09;102604.47;5046388;28;20044;-47
2023/03/24 06:10:28;;;;;;;10.07;2.67;;;;;;;8.97;61.56;102612.31;5040725;28;20029;-46
2023/03/24 06:12:55;;;;;;;10.93;2.47;;;;;;;8.92;61.82;102617.28;5053714;28;20033;-46
2023/03/24 06:15:26;;;;;;;10.35;2.70;;;;;;;8.86;62.63;102620.56;5050732;28;20055;-47
2023/03/24 06:17:53;;;;;;;10.98;2.63;;;;;;;8.88;62.89;102618.56;5050770;28;20040;-47
2023/03/24 06:20:20;;;;;;;10.90;3.17;;;;;;;8.87;63.15;102614.22;5052197;28;20383;-46
2023/03/24 06:22:48;;;;;;;9.85;2.83;;;;;;;8.95;62.29;102619.66;5045113;28;20045;-47
2023/03/24 06:25:19;;;;;;;22.85;2.95;;;;;;;8.88;62.47;102623.91;5040852;28;20112;-46
2023/03/24 06:27:45;;;;;;;10.85;2.70;;;;;;;8.82;62.64;102635.19;5046659;28;20040;-46
2023/03/24 06:30:16;;;;;;;11.60;3.53;;;;;;;8.82;61.88;102636.03;5035480;28;20025;-46
2023/03/24 06:32:46;;;;;;;17.05;3.60;;;;;;;8.67;61.31;102638.38;5036141;28;20064;-46
2023/03/24 06:35:16;;;;;;;10.88;2.95;;;;;;;8.57;62.35;102640.25;5048542;28;20079;-46
2023/03/24 06:37:43;;;;;;;8.20;2.85;;;;;;;8.60;61.87;102642.63;5054273;28;20025;-47
2023/03/24 06:40:13;;;;;;;10.15;2.80;;;;;;;8.57;62.40;102645.59;5051955;28;20104;-46
2023/03/24 06:42:39;;;;;;;10.05;2.85;;;;;;;8.60;62.06;102645.28;5033975;28;20049;-46
2023/03/24 06:45:06;;;;;;;13.65;2.28;;;;;;;8.60;61.61;102650.63;5038680;28;20115;-46
2023/03/24 06:47:32;;;;;;;7.75;2.40;;;;;;;8.69;61.08;102654.25;5048465;28;20033;-46
2023/03/24 06:49:59;;;;;;;16.80;2.85;;;;;;;8.45;61.34;102654.78;5041037;28;20044;-46
2023/03/24 06:52:26;;;;;;;7.85;2.78;;;;;;;8.62;60.27;102656.66;5043441;28;20040;-46
2023/03/24 06:54:53;;;;;;;10.10;2.25;;;;;;;8.46;61.04;102662.66;5057561;28;20039;-46
2023/03/24 06:57:20;;;;;;;7.40;2.53;;;;;;;8.52;60.37;102660.38;5036624;28;20033;-46
2023/03/24 06:59:47;;;;;;;8.52;2.35;;;;;;;8.46;61.55;102656.47;5062008;28;20258;-46
2023/03/24 07:02:13;;;;;;;9.80;2.25;;;;;;;8.42;60.53;102665.75;5047116;28;20443;-46
2023/03/24 07:04:39;;;;;;;8.65;2.60;;;;;;;8.41;59.51;102661.41;5039683;28;20034;-47
2023/03/24 07:07:05;;;;;;;6.65;2.17;;;;;;;8.39;59.06;102671.41;5045379;28;20029;-46
2023/03/24 07:09:32;;;;;;;11.85;2.50;;;;;;;8.27;59.59;102675.19;5040973;28;20021;-46
2023/03/24 07:11:58;;;;;;;7.25;2.10;;;;;;;8.29;58.66;102670.56;5044104;28;20055;-46
2023/03/24 07:14:27;;;;;;;5.82;1.70;;;;;;;8.27;58.75;102672.50;5033128;28;20498;-46
2023/03/24 07:16:53;;;;;;;12.25;1.88;;;;;;;8.38;58.86;102675.03;5032653;28;20053;-46
2023/03/24 07:19:21;;;;;;;5.70;1.63;;;;;;;8.24;59.43;102672.81;5045150;28;20021;-46
2023/03/24 07:21:49;;;;;;;8.85;2.10;;;;;;;8.31;59.56;102681.91;5053130;28;20394;-46
2023/03/24 07:24:16;;;;;;;5.30;2.15;;;;;;;8.30;60.13;102672.22;5041882;28;20033;-47
2023/03/24 07:26:43;;;;;;;10.32;2.35;;;;;;;8.38;60.25;102672.34;5036772;28;20032;-46
2023/03/24 07:29:10;;;;;;;13.82;2.63;;;;;;;8.35;59.84;102665.47;5050600;28;20482;-46
2023/03/24 07:31:38;;;;;;;5.07;1.83;;;;;;;8.31;59.76;102658.75;5041496;28;20030;-47
2023/03/24 07:34:07;;;;;;;12.57;2.28;;;;;;;8.35;59.78;102653.97;5039377;28;20032;-46
2023/03/24 07:36:34;;;;;;;8.30;1.83;;;;;;;8.15;58.94;102653.19;5042322;28;20391;-47
2023/03/24 07:39:00;;;;;;;8.50;2.50;;;;;;;8.06;59.68;102654.06;5042937;28;20436;-46
2023/03/24 07:41:28;;;;;;;12.50;2.63;;;;;;;7.93;60.28;102649.03;5044183;28;20029;-47
2023/03/24 07:43:54;;;;;;;7.22;2.15;;;;;;;7.93;60.15;102659.69;5032592;28;20025;-46
2023/03/24 07:46:21;;;;;;;7.20;1.88;;;;;;;7.91;59.72;102675.00;5039092;28;20025;-46
2023/03/24 07:48:47;;;;;;;9.38;2.55;;;;;;;7.92;59.71;102680.19;5057877;28;20044;-46
2023/03/24 07:51:13;;;;;;;7.63;2.38;;;;;;;7.90;58.92;102682.16;5049503;28;20028;-46
2023/03/24 07:53:39;;;;;;;10.90;2.08;;;;;;;7.94;59.20;102680.91;5034996;28;20688;-46
2023/03/24 07:56:06;;;;;;;8.02;2.30;;;;;;;7.91;58.53;102678.50;5040318;28;20120;-46
2023/03/24 07:58:32;;;;;;;7.18;1.73;;;;;;;7.87;58.47;102671.78;5032413;28;20033;-46
2023/03/24 08:00:59;;;;;;;7.35;1.85;;;;;;;7.84;58.68;102676.56;5044994;28;20056;-46
2023/03/24 08:03:26;;;;;;;7.72;2.03;;;;;;;7.78;58.89;102669.16;5048224;28;20025;-46
2023/03/24 08:05:54;;;;;;;8.85;2.17;;;;;;;7.68;58.89;102672.66;5051811;28;20120;-46
2023/03/24 08:08:20;;;;;;;7.38;2.70;;;;;;;7.67;58.73;102681.66;5049231;28;20100;-46
2023/03/24 08:10:49;;;;;;;4.45;1.95;;;;;;;7.59;59.54;102678.84;5048517;28;20257;-43
2023/03/24 08:13:16;;;;;;;6.15;2.08;;;;;;;7.57;59.24;102683.47;5032449;28;20491;-43
2023/03/24 08:15:43;;;;;;;7.53;2.25;;;;;;;7.60;58.56;102683.19;5041607;28;20063;-43
2023/03/24 08:18:09;;;;;;;5.70;1.90;;;;;;;7.61;58.91;102684.03;5031580;28;20036;-44
2023/03/24 08:20:36;;;;;;;9.95;2.40;;;;;;;7.56;58.77;102684.47;5046698;28;20078;-43
2023/03/24 08:23:03;;;;;;;10.32;2.38;;;;;;;7.60;58.72;102680.50;5050809;28;20037;-46
2023/03/24 08:25:30;;;;;;;8.82;1.80;;;;;;;7.59;59.39;102688.66;5049437;28;20112;-46
2023/03/24 08:27:56;;;;;;;9.48;2.80;;;;;;;7.61;59.09;102689.38;5051568;28;20044;-43
2023/03/24 08:30:24;;;;;;;10.25;2.30;;;;;;;7.59;59.23;102694.81;5041340;28;20037;-46
2023/03/24 08:32:54;;;;;;;6.97;2.05;;;;;;;7.53;60.08;102697.22;5036148;28;20036;-44
2023/03/24 08:35:26;;;;;;;9.50;1.95;;;;;;;7.43;60.02;102699.88;5048190;28;20037;-44
2023/03/24 08:37:52;;;;;;;11.55;2.38;;;;;;;7.38;60.34;102694.13;5045326;28;20060;-46
2023/03/24 08:40:22;;;;;;;8.98;2.40;;;;;;;7.53;59.60;102706.03;5037020;28;20082;-46
2023/03/24 08:42:55;;;;;;;9.32;1.95;;;;;;;7.58;59.87;102695.81;5050740;28;20025;-46
2023/03/24 08:45:23;;;;;;;5.97;1.98;;;;;;;7.71;59.05;102692.00;5049583;28;20371;-46
2023/03/24 08:47:50;;;;;;;9.02;1.98;;;;;;;7.61;58.02;102708.88;5036489;28;20491;-46
2023/03/24 08:50:20;;;;;;;8.85;2.03;;;;;;;7.60;57.15;102701.81;5050014;28;20517;-46
2023/03/24 08:52:49;;;;;;;8.50;1.98;;;;;;;7.58;57.78;102703.81;5050912;28;20032;-46
2023/03/24 08:55:18;;;;;;;7.10;1.95;;;;;;;7.75;57.86;102699.59;5041930;28;20036;-46
2023/03/24 08:57:44;;;;;;;6.85;1.80;;;;;;;7.65;58.09;102694.25;5041673;28;20033;-44
2023/03/24 09:00:14;;;;;;;8.63;1.80;;;;;;;7.64;58.79;102697.91;5064641;28;20390;-44
2023/03/24 09:02:42;;;;;;;7.32;2.08;;;;;;;7.68;58.10;102712.66;5047345;28;20037;-46
2023/03/24 09:05:09;;;;;;;9.38;2.17;;;;;;;7.66;56.19;102706.63;5053993;28;20067;-46
2023/03/24 09:07:35;;;;;;;6.88;1.60;;;;;;;7.63;56.90;102711.38;5052286;28;20029;-46
2023/03/24 09:10:03;;;;;;;5.05;2.00;;;;;;;7.50;57.23;102717.00;5048188;28;20116;-46
2023/03/24 09:12:30;;;;;;;9.40;2.03;;;;;;;7.44;56.90;102714.91;5049210;28;20029;-46
2023/03/24 09:14:56;;;;;;;5.80;1.70;;;;;;;7.40;57.22;102721.47;5046771;28;20039;-46
2023/03/24 09:17:22;;;;;;;9.38;2.35;;;;;;;7.47;56.82;102725.25;5035243;28;20120;-46
2023/03/24 09:19:49;;;;;;;7.22;2.03;;;;;;;7.51;55.87;102724.00;5049708;28;20032;-46
2023/03/24 09:22:15;;;;;;;7.90;1.85;;;;;;;7.36;56.73;102717.41;5050460;28;20029;-46
2023/03/24 09:24:43;;;;;;;10.27;2.08;;;;;;;7.38;56.33;102726.09;5053019;28;20104;-44
2023/03/24 09:27:09;;;;;;;11.88;2.13;;;;;;;7.49;55.90;102720.63;5038119;28;20455;-44
2023/03/24 09:29:36;;;;;;;4.30;2.15;;;;;;;7.52;55.30;102720.34;5040392;28;20040;-44
2023/03/24 09:32:02;;;;;;;6.57;1.80;;;;;;;7.31;56.61;102725.81;5031482;28;20079;-44
2023/03/24 09:34:30;;;;;;;5.80;1.77;;;;;;;7.39;55.78;102717.97;5036903;28;20025;-44
2023/03/24 09:36:57;;;;;;;9.43;2.10;;;;;;;7.46;55.22;102707.59;5054694;28;20040;-44
2023/03/24 09:39:23;;;;;;;6.97;1.50;;;;;;;7.40;56.08;102722.31;5057854;28;20405;-44
2023/03/24 09:41:49;;;;;;;3.97;1.33;;;;;;;7.38;56.29;102723.41;5047443;28;20061;-44
2023/03/24 09:44:23;;;;;;;6.90;1.63;;;;;;;7.45;55.62;102724.56;5031368;28;20653;-44
2023/03/24 09:47:03;;;;;;;9.48;1.88;;;;;;;7.51;54.96;102720.50;5032803;28;20037;-44
2023/03/24 09:49:36;;;;;;;5.72;1.70;;;;;;;7.46;55.23;102720.91;5056509;28;20078;-44
2023/03/24 09:52:09;;;;;;;5.90;1.73;;;;;;;7.38;55.09;102720.75;5049348;28;20025;-43
2023/03/24 09:54:43;;;;;;;7.22;1.50;;;;;;;7.33;56.13;102720.38;5054675;28;20413;-44
2023/03/24 09:57:46;;;;;;;8.77;2.10;;;;;;;7.25;55.81;102720.19;5050108;28;20398;-44
2023/03/24 10:00:21;;;;;;;8.07;1.70;;;;;;;7.24;55.25;102727.34;5018212;28;20048;-44
2023/03/24 10:02:48;;;;;;;6.30;1.50;;;;;;;7.23;55.37;102746.13;5032396;28;20096;-46
2023/03/24 10:05:25;;;;;;;6.60;1.80;;;;;;;7.32;54.59;102732.81;5031763;28;20206;-44
2023/03/24 10:08:13;;;;;;;7.20;1.90;;;;;;;7.27;55.14;102727.06;5038253;28;20030;-44
2023/03/24 10:11:09;;;;;;;6.85;1.90;;;;;;;7.15;55.27;102722.84;5046310;28;20053;-43
2023/03/24 10:13:47;;;;;;;6.22;1.90;;;;;;;7.09;55.52;102720.72;5030793;28;20033;-44
2023/03/24 10:16:18;;;;;;;8.10;1.80;;;;;;;7.25;55.88;102714.88;5039091;28;20048;-44
2023/03/24 10:19:21;;;;;;;10.57;2.50;;;;;;;7.23;55.99;102722.16;5039502;28;20037;-44
2023/03/24 10:22:01;;;;;;;8.25;2.22;;;;;;;7.16;56.61;102724.50;5050199;28;20184;-44
2023/03/24 10:24:37;;;;;;;6.75;2.08;;;;;;;7.15;55.28;102726.34;5041703;28;20033;-44
2023/03/24 10:27:36;;;;;;;6.72;2.05;;;;;;;7.21;55.62;102726.75;5042259;28;20419;-44
2023/03/24 10:30:23;;;;;;;7.10;2.28;;;;;;;7.18;55.50;102733.22;5044846;28;20024;-44
2023/03/24 10:32:49;;;;;;;5.93;1.80;;;;;;;7.19;54.89;102729.56;5051935;28;20032;-44
2023/03/24 10:35:28;;;;;;;6.40;2.33;;;;;;;7.06;53.96;102737.81;5051823;28;20078;-43
2023/03/24 10:37:58;;;;;;;6.80;1.80;;;;;;;7.04;53.94;102736.25;5069859;28;20028;-44
2023/03/24 10:40:30;;;;;;;6.07;1.92;;;;;;;7.07;54.65;102734.19;5050868;28;20024;-44
2023/03/24 10:42:58;;;;;;;6.75;2.08;;;;;;;7.11;54.66;102738.25;5051560;28;20395;-44
2023/03/24 10:45:47;;;;;;;8.77;2.22;;;;;;;7.05;54.72;102736.16;5057687;28;20165;-44
2023/03/24 10:48:33;;;;;;;7.00;2.30;;;;;;;6.94;55.22;102733.59;5059416;28;20033;-44
2023/03/24 10:50:59;;;;;;;5.97;2.00;;;;;;;7.04;54.96;102739.75;5037448;28;20025;-44
2023/03/24 10:53:26;;;;;;;9.52;2.10;;;;;;;7.08;55.24;102741.19;5052163;28;20037;-44
2023/03/24 10:55:52;;;;;;;8.20;1.80;;;;;;;6.88;55.91;102739.44;5042502;28;20602;-44
2023/03/24 10:58:42;;;;;;;7.40;2.08;;;;;;;6.96;55.70;102736.94;5046246;28;20076;-44
2023/03/24 11:01:26;;;;;;;5.20;1.92;;;;;;;6.96;56.11;102726.31;5033313;28;20120;-45
2023/03/24 11:03:57;;;;;;;6.50;1.95;;;;;;;6.96;56.09;102739.63;5049476;28;20037;-44
2023/03/24 11:06:24;;;;;;;7.97;1.92;;;;;;;7.01;56.31;102748.03;5048925;28;20021;-44
2023/03/24 11:09:16;;;;;;;7.55;1.80;;;;;;;6.97;56.33;102740.47;5050441;28;20025;-45
2023/03/24 11:11:43;;;;;;;9.40;2.10;;;;;;;7.04;56.84;102737.09;5034586;28;20104;-44
2023/03/24 11:14:24;;;;;;;4.57;2.00;;;;;;;6.92;57.54;102735.53;5037788;28;20037;-44
2023/03/24 11:16:52;;;;;;;9.05;2.10;;;;;;;6.97;56.90;102741.28;5042767;28;20043;-44
2023/03/24 11:19:22;;;;;;;6.22;1.60;;;;;;;6.98;56.79;102731.47;5048148;28;20078;-44
2023/03/24 11:21:50;;;;;;;9.30;1.98;;;;;;;7.09;56.23;102744.69;5041959;28;20033;-44
2023/03/24 11:24:19;;;;;;;6.85;2.25;;;;;;;7.03;56.31;102743.41;5045762;28;20039;-44
2023/03/24 11:27:00;;;;;;;7.20;1.50;;;;;;;6.98;55.08;102745.63;5051826;28;20029;-44
2023/03/24 11:29:29;;;;;;;5.63;1.80;;;;;;;6.96;55.46;102736.94;5032823;28;20039;-45
2023/03/24 11:31:59;;;;;;;6.85;1.80;;;;;;;6.94;55.96;102736.25;5044014;28;20057;-44
2023/03/24 11:34:37;;;;;;;6.32;2.33;;;;;;;6.86;56.46;102736.06;5046664;28;20043;-44
2023/03/24 11:37:13;;;;;;;13.70;2.45;;;;;;;6.87;56.47;102725.28;5037723;28;20060;-44
2023/03/24 11:39:39;;;;;;;10.75;1.83;;;;;;;6.94;56.42;102735.38;5048230;28;20025;-44
2023/03/24 11:42:16;;;;;;;7.38;1.83;;;;;;;6.94;56.88;102730.06;5037360;28;20572;-44
2023/03/24 11:44:42;;;;;;;8.90;2.25;;;;;;;6.81;57.36;102738.31;5054996;28;20051;-44
2023/03/24 11:47:28;;;;;;;9.27;2.53;;;;;;;6.81;57.68;102738.31;5060598;28;20037;-44
2023/03/24 11:50:09;;;;;;;9.15;1.65;;;;;;;6.96;57.44;102739.63;5032880;28;20026;-44
2023/03/24 11:53:03;;;;;;;4.80;1.67;;;;;;;6.83;58.15;102752.34;5034491;28;20037;-44